createdAt,value
2018-05-21T00:00:52.476Z,12.08
2018-05-21T00:01:52.477Z,12.02
2018-05-21T00:02:52.476Z,12.03
2018-05-21T00:03:52.479Z,12.07
2018-05-21T00:04:52.473Z,11.97
2018-05-21T00:05:52.473Z,11.97
2018-05-21T00:06:52.471Z,11.95
2018-05-21T00:07:52.469Z,11.99
2018-05-21T00:08:52.467Z,11.95
2018-05-21T00:09:52.467Z,11.88
2018-05-21T00:10:52.467Z,11.86
2018-05-21T00:11:52.465Z,11.85
2018-05-21T00:12:52.463Z,11.77
2018-05-21T00:13:52.462Z,11.65
2018-05-21T00:14:52.466Z,11.74
2018-05-21T00:15:52.460Z,11.81
2018-05-21T00:16:52.468Z,11.80
2018-05-21T00:17:52.458Z,11.76
2018-05-21T00:18:52.456Z,11.67
2018-05-21T00:19:52.455Z,11.74
2018-05-21T00:20:52.455Z,11.63
2018-05-21T00:21:52.453Z,11.71
2018-05-21T00:22:52.451Z,11.60
2018-05-21T00:23:52.449Z,11.56
2018-05-21T00:24:52.449Z,11.56
2018-05-21T00:25:52.448Z,11.65
2018-05-21T00:26:52.446Z,11.58
2018-05-21T00:27:52.444Z,11.67
2018-05-21T00:28:52.445Z,11.60
2018-05-21T00:29:52.446Z,11.56
2018-05-21T00:30:52.441Z,11.53
2018-05-21T00:31:52.441Z,11.55
2018-05-21T00:32:52.439Z,11.56
2018-05-21T00:33:52.437Z,11.52
2018-05-21T00:34:52.437Z,11.55
2018-05-21T00:35:52.435Z,11.45
2018-05-21T00:36:52.433Z,11.48
2018-05-21T00:37:52.431Z,11.53
2018-05-21T00:38:52.431Z,11.44
2018-05-21T00:39:52.429Z,11.35
2018-05-21T00:40:52.427Z,11.38
2018-05-21T00:41:52.426Z,11.35
2018-05-21T00:42:52.424Z,11.34
2018-05-21T00:43:52.469Z,11.33
2018-05-21T00:44:52.421Z,11.33
2018-05-21T00:45:52.420Z,11.38
2018-05-21T00:46:52.420Z,11.26
2018-05-21T00:47:52.417Z,11.26
2018-05-21T00:48:52.417Z,11.20
2018-05-21T00:49:52.415Z,11.23
2018-05-21T00:50:52.413Z,11.31
2018-05-21T00:51:52.411Z,11.20
2018-05-21T00:52:52.409Z,11.33
2018-05-21T00:53:52.408Z,11.27
2018-05-21T00:54:52.407Z,11.26
2018-05-21T00:55:52.406Z,11.23
2018-05-21T00:56:52.404Z,11.19
2018-05-21T00:57:52.402Z,11.34
2018-05-21T00:58:52.401Z,11.23
2018-05-21T00:59:52.399Z,11.35
2018-05-21T01:00:52.397Z,11.27
2018-05-21T01:01:52.396Z,11.33
2018-05-21T01:02:52.396Z,11.30
2018-05-21T01:03:52.392Z,11.23
2018-05-21T01:04:52.392Z,11.20
2018-05-21T01:05:52.390Z,11.20
2018-05-21T01:06:52.388Z,11.19
2018-05-21T01:07:52.393Z,11.23
2018-05-21T01:08:52.385Z,11.19
2018-05-21T01:09:52.384Z,11.16
2018-05-21T01:10:52.383Z,11.19
2018-05-21T01:11:52.385Z,11.13
2018-05-21T01:12:52.379Z,11.10
2018-05-21T01:13:52.378Z,11.15
2018-05-21T01:14:52.377Z,11.02
2018-05-21T01:15:52.375Z,10.97
2018-05-21T01:16:52.372Z,11.05
2018-05-21T01:17:52.372Z,11.02
2018-05-21T01:18:52.377Z,10.98
2018-05-21T01:19:52.369Z,11.04
2018-05-21T01:20:52.368Z,11.04
2018-05-21T01:21:52.368Z,11.01
2018-05-21T01:22:52.363Z,10.98
2018-05-21T01:23:52.360Z,11.00
2018-05-21T01:24:52.359Z,11.01
2018-05-21T01:25:52.358Z,10.97
2018-05-21T01:26:52.356Z,11.00
2018-05-21T01:27:52.357Z,11.04
2018-05-21T01:28:52.626Z,10.97
2018-05-21T01:29:52.354Z,10.94
2018-05-21T01:30:52.351Z,10.92
2018-05-21T01:31:52.347Z,11.01
2018-05-21T01:32:52.346Z,10.92
2018-05-21T01:33:52.345Z,11.01
2018-05-21T01:34:52.342Z,11.01
2018-05-21T01:35:52.339Z,10.92
2018-05-21T01:36:52.339Z,10.84
2018-05-21T01:37:52.337Z,10.89
2018-05-21T01:38:52.336Z,10.82
2018-05-21T01:39:52.333Z,10.83
2018-05-21T01:40:52.336Z,10.84
2018-05-21T01:41:52.330Z,10.92
2018-05-21T01:42:52.328Z,10.89
2018-05-21T01:43:52.326Z,10.89
2018-05-21T01:44:52.325Z,10.92
2018-05-21T01:45:52.323Z,10.83
2018-05-21T01:46:52.321Z,10.86
2018-05-21T01:47:52.319Z,10.89
2018-05-21T01:48:52.319Z,10.89
2018-05-21T01:49:52.316Z,10.97
2018-05-21T01:50:52.313Z,10.83
2018-05-21T01:51:52.312Z,10.90
2018-05-21T01:52:52.317Z,10.87
2018-05-21T01:53:52.310Z,10.84
2018-05-21T01:54:52.309Z,10.90
2018-05-21T01:55:52.304Z,10.92
2018-05-21T01:56:52.304Z,10.90
2018-05-21T01:57:52.302Z,10.86
2018-05-21T01:58:52.300Z,10.86
2018-05-21T01:59:52.298Z,10.80
2018-05-21T02:00:52.297Z,10.82
2018-05-21T02:01:52.294Z,10.76
2018-05-21T02:02:52.293Z,10.77
2018-05-21T02:03:52.291Z,10.69
2018-05-21T02:04:52.289Z,10.80
2018-05-21T02:05:52.288Z,10.67
2018-05-21T02:06:52.286Z,10.68
2018-05-21T02:07:52.283Z,10.77
2018-05-21T02:08:52.282Z,10.72
2018-05-21T02:09:52.280Z,10.77
2018-05-21T02:10:52.279Z,10.79
2018-05-21T02:11:52.275Z,10.72
2018-05-21T02:12:52.279Z,10.71
2018-05-21T02:13:52.505Z,10.71
2018-05-21T02:14:52.270Z,10.79
2018-05-21T02:15:52.269Z,10.75
2018-05-21T02:16:52.266Z,10.80
2018-05-21T02:17:52.264Z,10.82
2018-05-21T02:18:52.263Z,10.77
2018-05-21T02:19:52.265Z,10.77
2018-05-21T02:20:52.258Z,10.80
2018-05-21T02:21:52.257Z,10.76
2018-05-21T02:22:52.697Z,10.75
2018-05-21T02:23:52.252Z,10.72
2018-05-21T02:24:52.254Z,10.72
2018-05-21T02:25:52.249Z,10.51
2018-05-21T02:26:52.288Z,10.59
2018-05-21T02:27:52.247Z,10.68
2018-05-21T02:28:52.246Z,10.64
2018-05-21T02:29:52.240Z,10.62
2018-05-21T02:30:52.240Z,10.62
2018-05-21T02:31:52.237Z,10.68
2018-05-21T02:32:52.235Z,10.64
2018-05-21T02:33:52.235Z,10.67
2018-05-21T02:34:52.232Z,10.65
2018-05-21T02:35:52.232Z,10.57
2018-05-21T02:36:52.228Z,10.75
2018-05-21T02:37:52.225Z,10.72
2018-05-21T02:38:52.224Z,10.75
2018-05-21T02:39:52.229Z,10.71
2018-05-21T02:40:52.220Z,10.71
2018-05-21T02:41:52.223Z,10.68
2018-05-21T02:42:52.215Z,10.58
2018-05-21T02:43:52.213Z,10.64
2018-05-21T02:44:52.212Z,10.64
2018-05-21T02:45:52.209Z,10.67
2018-05-21T02:46:52.207Z,10.65
2018-05-21T02:47:52.205Z,10.61
2018-05-21T02:48:52.204Z,10.68
2018-05-21T02:49:52.201Z,10.61
2018-05-21T02:50:52.201Z,10.65
2018-05-21T02:51:52.197Z,10.62
2018-05-21T02:52:52.194Z,10.58
2018-05-21T02:53:52.198Z,10.57
2018-05-21T02:54:52.190Z,10.62
2018-05-21T02:55:52.190Z,10.49
2018-05-21T02:56:52.187Z,10.65
2018-05-21T02:57:52.185Z,10.62
2018-05-21T02:58:52.183Z,10.58
2018-05-21T02:59:52.181Z,10.62
2018-05-21T03:00:52.180Z,10.68
2018-05-21T03:01:52.182Z,10.72
2018-05-21T03:02:52.175Z,10.61
2018-05-21T03:03:52.173Z,10.62
2018-05-21T03:04:52.174Z,10.64
2018-05-21T03:05:52.170Z,10.75
2018-05-21T03:06:52.167Z,10.61
2018-05-21T03:07:52.164Z,10.61
2018-05-21T03:08:52.164Z,10.67
2018-05-21T03:09:52.161Z,10.57
2018-05-21T03:10:52.159Z,10.61
2018-05-21T03:11:52.157Z,10.62
2018-05-21T03:12:52.154Z,10.64
2018-05-21T03:13:52.153Z,10.59
2018-05-21T03:14:52.151Z,10.67
2018-05-21T03:15:52.148Z,10.71
2018-05-21T03:16:52.148Z,10.59
2018-05-21T03:17:52.145Z,10.68
2018-05-21T03:18:52.144Z,10.57
2018-05-21T03:19:52.139Z,10.64
2018-05-21T03:20:52.138Z,10.64
2018-05-21T03:21:52.136Z,10.62
2018-05-21T03:22:52.134Z,10.62
2018-05-21T03:23:52.132Z,10.58
2018-05-21T03:24:52.130Z,10.67
2018-05-21T03:25:52.129Z,10.59
2018-05-21T03:26:52.126Z,10.57
2018-05-21T03:27:52.124Z,10.62
2018-05-21T03:28:52.122Z,10.71
2018-05-21T03:29:52.121Z,10.79
2018-05-21T03:30:52.120Z,10.71
2018-05-21T03:31:52.117Z,10.64
2018-05-21T03:32:52.115Z,10.68
2018-05-21T03:33:52.116Z,10.75
2018-05-21T03:34:52.115Z,10.69
2018-05-21T03:35:52.108Z,10.65
2018-05-21T03:36:52.105Z,10.65
2018-05-21T03:37:52.105Z,10.62
2018-05-21T03:38:52.103Z,10.62
2018-05-21T03:39:52.099Z,10.64
2018-05-21T03:40:52.097Z,10.59
2018-05-21T03:41:52.095Z,10.61
2018-05-21T03:42:52.094Z,10.59
2018-05-21T03:43:52.090Z,10.57
2018-05-21T03:44:52.090Z,10.45
2018-05-21T03:45:52.088Z,10.53
2018-05-21T03:46:52.086Z,10.55
2018-05-21T03:47:52.083Z,10.46
2018-05-21T03:48:52.081Z,10.53
2018-05-21T03:49:52.079Z,10.53
2018-05-21T03:50:52.096Z,10.48
2018-05-21T03:51:52.074Z,10.46
2018-05-21T03:52:52.105Z,10.43
2018-05-21T03:53:52.071Z,10.41
2018-05-21T03:54:52.070Z,10.42
2018-05-21T03:55:52.069Z,10.39
2018-05-21T03:56:52.147Z,10.34
2018-05-21T03:57:52.063Z,10.36
2018-05-21T03:58:52.089Z,10.38
2018-05-21T03:59:52.059Z,10.49
2018-05-21T04:00:52.056Z,10.45
2018-05-21T04:01:52.057Z,10.39
2018-05-21T04:02:52.055Z,10.33
2018-05-21T04:03:52.048Z,10.42
2018-05-21T04:04:52.047Z,10.39
2018-05-21T04:05:52.050Z,10.43
2018-05-21T04:06:52.045Z,10.34
2018-05-21T04:07:52.040Z,10.38
2018-05-21T04:08:52.038Z,10.45
2018-05-21T04:09:52.037Z,10.49
2018-05-21T04:10:52.037Z,10.42
2018-05-21T04:11:52.036Z,10.42
2018-05-21T04:12:52.029Z,10.43
2018-05-21T04:13:52.031Z,10.42
2018-05-21T04:14:52.026Z,10.51
2018-05-21T04:15:52.024Z,10.38
2018-05-21T04:16:52.022Z,10.53
2018-05-21T04:17:52.020Z,10.58
2018-05-21T04:18:52.094Z,10.43
2018-05-21T04:19:52.015Z,10.61
2018-05-21T04:20:52.013Z,10.51
2018-05-21T04:21:52.012Z,10.61
2018-05-21T04:22:52.010Z,10.48
2018-05-21T04:23:52.007Z,10.65
2018-05-21T04:24:52.005Z,10.58
2018-05-21T04:25:52.002Z,10.68
2018-05-21T04:26:52.001Z,10.68
2018-05-21T04:27:51.999Z,10.65
2018-05-21T04:28:51.996Z,10.67
2018-05-21T04:29:51.995Z,10.71
2018-05-21T04:30:51.992Z,10.71
2018-05-21T04:31:51.992Z,10.76
2018-05-21T04:32:51.988Z,10.76
2018-05-21T04:33:51.986Z,10.77
2018-05-21T04:34:51.985Z,10.72
2018-05-21T04:35:51.982Z,10.79
2018-05-21T04:36:51.980Z,10.79
2018-05-21T04:37:51.978Z,10.84
2018-05-21T04:38:51.977Z,10.79
2018-05-21T04:39:51.974Z,10.87
2018-05-21T04:40:51.972Z,10.84
2018-05-21T04:41:51.973Z,10.89
2018-05-21T04:42:51.969Z,10.97
2018-05-21T04:43:51.968Z,10.98
2018-05-21T04:44:51.966Z,10.87
2018-05-21T04:45:51.963Z,10.98
2018-05-21T04:46:51.965Z,10.95
2018-05-21T04:47:51.961Z,10.97
2018-05-21T04:48:51.958Z,10.90
2018-05-21T04:49:51.956Z,10.98
2018-05-21T04:50:51.954Z,11.04
2018-05-21T04:51:51.952Z,11.04
2018-05-21T04:52:51.950Z,11.12
2018-05-21T04:53:51.953Z,11.07
2018-05-21T04:54:51.948Z,11.13
2018-05-21T04:55:51.944Z,11.15
2018-05-21T04:56:51.943Z,11.08
2018-05-21T04:57:51.940Z,11.15
2018-05-21T04:58:51.939Z,11.19
2018-05-21T04:59:51.938Z,11.22
2018-05-21T05:00:51.936Z,11.26
2018-05-21T05:01:51.934Z,11.19
2018-05-21T05:02:51.933Z,11.27
2018-05-21T05:03:51.931Z,11.22
2018-05-21T05:04:51.929Z,11.31
2018-05-21T05:05:51.996Z,11.35
2018-05-21T05:06:51.927Z,11.31
2018-05-21T05:07:51.927Z,11.51
2018-05-21T05:08:51.922Z,11.49
2018-05-21T05:09:51.922Z,11.53
2018-05-21T05:10:51.920Z,11.56
2018-05-21T05:11:51.993Z,11.59
2018-05-21T05:12:51.916Z,11.63
2018-05-21T05:13:51.916Z,11.67
2018-05-21T05:14:51.914Z,11.63
2018-05-21T05:15:51.910Z,11.78
2018-05-21T05:16:51.910Z,11.74
2018-05-21T05:17:51.908Z,11.83
2018-05-21T05:18:51.908Z,11.89
2018-05-21T05:19:51.905Z,11.86
2018-05-21T05:20:51.905Z,11.93
2018-05-21T05:21:51.903Z,12.03
2018-05-21T05:22:51.901Z,12.05
2018-05-21T05:23:51.900Z,12.07
2018-05-21T05:24:51.904Z,12.08
2018-05-21T05:25:51.898Z,12.07
2018-05-21T05:26:51.897Z,12.20
2018-05-21T05:27:51.895Z,12.14
2018-05-21T05:28:51.894Z,12.10
2018-05-21T05:29:51.893Z,12.17
2018-05-21T05:30:51.892Z,12.10
2018-05-21T05:31:51.891Z,12.07
2018-05-21T05:32:51.888Z,12.10
2018-05-21T05:33:51.888Z,12.12
2018-05-21T05:34:51.887Z,12.00
2018-05-21T05:35:51.910Z,12.11
2018-05-21T05:36:51.883Z,12.10
2018-05-21T05:37:51.885Z,12.08
2018-05-21T05:38:51.883Z,12.00
2018-05-21T05:39:51.884Z,12.03
2018-05-21T05:40:51.882Z,12.02
2018-05-21T05:41:51.878Z,12.02
2018-05-21T05:42:51.878Z,12.10
2018-05-21T05:43:51.876Z,12.08
2018-05-21T05:44:51.880Z,12.05
2018-05-21T05:45:51.874Z,12.17
2018-05-21T05:46:51.873Z,12.18
2018-05-21T05:47:51.872Z,12.20
2018-05-21T05:48:51.873Z,12.25
2018-05-21T05:49:51.873Z,12.37
2018-05-21T05:50:51.871Z,12.30
2018-05-21T05:51:51.867Z,12.35
2018-05-21T05:52:51.868Z,12.36
2018-05-21T05:53:51.866Z,12.44
2018-05-21T05:54:51.868Z,12.48
2018-05-21T05:55:51.864Z,12.53
2018-05-21T05:56:51.863Z,12.58
2018-05-21T05:57:51.863Z,12.57
2018-05-21T05:58:51.864Z,12.69
2018-05-21T05:59:51.860Z,12.66
2018-05-21T06:00:51.860Z,12.78
2018-05-21T06:01:51.859Z,12.81
2018-05-21T06:02:51.860Z,12.86
2018-05-21T06:03:51.858Z,13.02
2018-05-21T06:04:51.859Z,13.08
2018-05-21T06:05:51.856Z,13.11
2018-05-21T06:06:51.856Z,13.19
2018-05-21T06:07:51.857Z,13.28
2018-05-21T06:08:51.854Z,13.23
2018-05-21T06:09:51.853Z,13.28
2018-05-21T06:10:51.858Z,13.36
2018-05-21T06:11:51.855Z,13.45
2018-05-21T06:12:51.857Z,13.54
2018-05-21T06:13:51.853Z,13.57
2018-05-21T06:14:51.853Z,13.54
2018-05-21T06:15:51.850Z,13.71
2018-05-21T06:16:51.852Z,13.67
2018-05-21T06:17:51.851Z,13.79
2018-05-21T06:18:51.851Z,13.78
2018-05-21T06:19:51.851Z,13.79
2018-05-21T06:20:51.849Z,13.80
2018-05-21T06:21:51.851Z,13.82
2018-05-21T06:22:51.851Z,13.85
2018-05-21T06:23:51.850Z,13.97
2018-05-21T06:24:51.850Z,13.97
2018-05-21T06:25:51.872Z,14.01
2018-05-21T06:26:51.852Z,14.05
2018-05-21T06:27:51.850Z,14.16
2018-05-21T06:28:51.851Z,14.18
2018-05-21T06:29:51.854Z,14.23
2018-05-21T06:30:51.851Z,14.26
2018-05-21T06:31:51.849Z,14.30
2018-05-21T06:32:51.850Z,14.36
2018-05-21T06:33:51.862Z,14.41
2018-05-21T06:34:51.861Z,14.40
2018-05-21T06:35:51.851Z,14.44
2018-05-21T06:36:51.851Z,14.56
2018-05-21T06:37:51.852Z,14.51
2018-05-21T06:38:51.853Z,14.55
2018-05-21T06:39:51.853Z,14.58
2018-05-21T06:40:51.853Z,14.61
2018-05-21T06:41:51.854Z,14.59
2018-05-21T06:42:51.855Z,14.68
2018-05-21T06:43:51.855Z,14.73
2018-05-21T06:44:51.856Z,14.81
2018-05-21T06:45:51.856Z,14.94
2018-05-21T06:46:51.857Z,14.94
2018-05-21T06:47:51.903Z,14.99
2018-05-21T06:48:51.858Z,14.99
2018-05-21T06:49:51.859Z,15.14
2018-05-21T06:50:51.860Z,15.15
2018-05-21T06:51:51.860Z,15.25
2018-05-21T06:52:51.860Z,15.22
2018-05-21T06:53:51.861Z,15.23
2018-05-21T06:54:51.865Z,15.30
2018-05-21T06:55:51.863Z,15.39
2018-05-21T06:56:51.863Z,15.32
2018-05-21T06:57:51.866Z,15.39
2018-05-21T06:58:51.866Z,15.51
2018-05-21T06:59:51.872Z,15.59
2018-05-21T07:00:51.867Z,15.60
2018-05-21T07:01:51.871Z,15.52
2018-05-21T07:02:51.879Z,15.63
2018-05-21T07:03:51.870Z,15.73
2018-05-21T07:04:51.872Z,15.75
2018-05-21T07:05:51.874Z,15.84
2018-05-21T07:06:51.874Z,15.87
2018-05-21T07:07:51.876Z,15.84
2018-05-21T07:08:51.875Z,15.90
2018-05-21T07:09:51.878Z,15.99
2018-05-21T07:10:51.878Z,16.08
2018-05-21T07:11:51.880Z,16.18
2018-05-21T07:12:51.881Z,16.13
2018-05-21T07:13:51.884Z,16.22
2018-05-21T07:14:51.885Z,16.32
2018-05-21T07:15:51.886Z,16.61
2018-05-21T07:16:51.889Z,17.04
2018-05-21T07:17:51.891Z,17.52
2018-05-21T07:18:51.895Z,17.91
2018-05-21T07:19:51.899Z,18.03
2018-05-21T07:20:51.900Z,18.16
2018-05-21T07:21:51.904Z,18.16
2018-05-21T07:22:51.908Z,17.94
2018-05-21T07:23:51.912Z,17.88
2018-05-21T07:24:51.916Z,17.79
2018-05-21T07:25:51.920Z,17.88
2018-05-21T07:26:51.926Z,17.94
2018-05-21T07:27:51.929Z,17.84
2018-05-21T07:28:51.933Z,17.78
2018-05-21T07:29:51.944Z,17.93
2018-05-21T07:30:51.945Z,18.19
2018-05-21T07:31:51.951Z,18.48
2018-05-21T07:32:51.957Z,18.57
2018-05-21T07:33:51.960Z,18.73
2018-05-21T07:34:51.968Z,18.85
2018-05-21T07:35:51.973Z,19.05
2018-05-21T07:36:51.978Z,19.24
2018-05-21T07:37:51.983Z,19.30
2018-05-21T07:38:52.055Z,19.27
2018-05-21T07:39:51.994Z,19.24
2018-05-21T07:40:51.998Z,19.27
2018-05-21T07:41:52.005Z,19.26
2018-05-21T07:42:52.010Z,19.19
2018-05-21T07:43:52.063Z,19.01
2018-05-21T07:44:52.079Z,19.09
2018-05-21T07:45:52.027Z,19.09
2018-05-21T07:46:52.030Z,19.11
2018-05-21T07:47:52.036Z,19.12
2018-05-21T07:48:52.042Z,19.09
2018-05-21T07:49:52.047Z,19.20
2018-05-21T07:50:52.054Z,19.42
2018-05-21T07:51:52.065Z,19.55
2018-05-21T07:52:52.068Z,19.74
2018-05-21T07:53:52.075Z,19.97
2018-05-21T07:54:52.084Z,20.14
2018-05-21T07:55:52.093Z,20.52
2018-05-21T07:56:52.102Z,20.90
2018-05-21T07:57:52.123Z,21.51
2018-05-21T07:58:52.122Z,21.83
2018-05-21T07:59:52.133Z,21.91
2018-05-21T08:00:52.145Z,22.01
2018-05-21T08:01:52.156Z,22.36
2018-05-21T08:02:52.169Z,22.78
2018-05-21T08:03:52.184Z,23.11
2018-05-21T08:04:52.209Z,23.34
2018-05-21T08:05:52.203Z,23.63
2018-05-21T08:06:52.217Z,23.99
2018-05-21T08:07:52.231Z,24.04
2018-05-21T08:08:52.243Z,24.26
2018-05-21T08:09:52.258Z,24.56
2018-05-21T08:10:52.271Z,24.68
2018-05-21T08:11:52.285Z,24.85
2018-05-21T08:12:52.299Z,25.04
2018-05-21T08:13:52.316Z,25.12
2018-05-21T08:14:52.345Z,25.24
2018-05-21T08:15:52.345Z,25.15
2018-05-21T08:16:52.358Z,25.22
2018-05-21T08:17:52.373Z,25.36
2018-05-21T08:18:52.389Z,24.97
2018-05-21T08:19:52.404Z,25.24
2018-05-21T08:20:52.421Z,25.33
2018-05-21T08:21:52.435Z,25.22
2018-05-21T08:22:52.450Z,25.39
2018-05-21T08:23:52.465Z,25.66
2018-05-21T08:24:52.483Z,25.70
2018-05-21T08:25:52.498Z,25.09
2018-05-21T08:26:52.533Z,24.53
2018-05-21T08:27:52.541Z,24.11
2018-05-21T08:28:52.545Z,23.86
2018-05-21T08:29:52.560Z,23.42
2018-05-21T08:30:52.575Z,23.23
2018-05-21T08:31:52.591Z,23.49
2018-05-21T08:32:52.607Z,23.48
2018-05-21T08:33:52.621Z,23.51
2018-05-21T08:34:52.638Z,23.89
2018-05-21T08:35:52.651Z,24.26
2018-05-21T08:36:52.671Z,24.56
2018-05-21T08:37:52.684Z,24.97
2018-05-21T08:38:52.699Z,25.14
2018-05-21T08:39:52.721Z,25.29
2018-05-21T08:40:52.730Z,25.55
2018-05-21T08:41:52.745Z,25.74
2018-05-21T08:42:52.761Z,25.83
2018-05-21T08:43:52.780Z,25.81
2018-05-21T08:44:52.794Z,25.55
2018-05-21T08:45:52.807Z,25.78
2018-05-21T08:46:52.824Z,25.93
2018-05-21T08:47:52.839Z,26.11
2018-05-21T08:48:52.968Z,26.26
2018-05-21T08:49:52.871Z,26.26
2018-05-21T08:50:52.910Z,25.83
2018-05-21T08:51:52.902Z,25.96
2018-05-21T08:52:52.922Z,25.95
2018-05-21T08:53:52.937Z,26.08
2018-05-21T08:54:52.951Z,25.56
2018-05-21T08:55:53.042Z,25.03
2018-05-21T08:56:52.984Z,24.51
2018-05-21T08:57:53.000Z,24.55
2018-05-21T08:58:53.021Z,24.86
2018-05-21T08:59:53.031Z,25.15
2018-05-21T09:00:53.049Z,25.30
2018-05-21T09:01:53.061Z,25.41
2018-05-21T09:02:53.079Z,25.59
2018-05-21T09:03:53.095Z,25.66
2018-05-21T09:04:53.109Z,25.86
2018-05-21T09:05:53.126Z,25.91
2018-05-21T09:06:53.142Z,26.01
2018-05-21T09:07:53.157Z,26.06
2018-05-21T09:08:53.173Z,26.11
2018-05-21T09:09:53.190Z,26.19
2018-05-21T09:10:53.207Z,26.26
2018-05-21T09:11:53.225Z,26.26
2018-05-21T09:12:53.237Z,26.30
2018-05-21T09:13:53.253Z,26.42
2018-05-21T09:14:53.269Z,26.26
2018-05-21T09:15:53.284Z,26.31
2018-05-21T09:16:53.301Z,26.30
2018-05-21T09:17:53.317Z,26.31
2018-05-21T09:18:53.334Z,26.27
2018-05-21T09:19:53.347Z,26.34
2018-05-21T09:20:53.365Z,26.34
2018-05-21T09:21:53.379Z,26.41
2018-05-21T09:22:53.401Z,26.55
2018-05-21T09:23:53.411Z,26.41
2018-05-21T09:24:53.428Z,26.31
2018-05-21T09:25:53.443Z,26.31
2018-05-21T09:26:53.461Z,26.24
2018-05-21T09:27:53.477Z,26.11
2018-05-21T09:28:53.491Z,26.13
2018-05-21T09:29:53.509Z,26.01
2018-05-21T09:30:53.523Z,25.92
2018-05-21T09:31:53.542Z,25.96
2018-05-21T09:32:53.555Z,25.93
2018-05-21T09:33:53.572Z,25.49
2018-05-21T09:34:53.589Z,25.24
2018-05-21T09:35:53.601Z,25.30
2018-05-21T09:36:53.621Z,25.59
2018-05-21T09:37:53.633Z,25.77
2018-05-21T09:38:53.648Z,25.80
2018-05-21T09:39:53.662Z,25.83
2018-05-21T09:40:53.679Z,25.68
2018-05-21T09:41:53.703Z,25.55
2018-05-21T09:42:53.756Z,25.63
2018-05-21T09:43:53.724Z,25.83
2018-05-21T09:44:53.740Z,25.89
2018-05-21T09:45:53.757Z,26.13
2018-05-21T09:46:53.770Z,26.10
2018-05-21T09:47:53.786Z,26.15
2018-05-21T09:48:53.801Z,26.36
2018-05-21T09:49:53.814Z,26.48
2018-05-21T09:50:53.830Z,26.56
2018-05-21T09:51:53.843Z,26.41
2018-05-21T09:52:53.859Z,26.44
2018-05-21T09:53:53.875Z,26.33
2018-05-21T09:54:53.890Z,26.26
2018-05-21T09:55:53.905Z,26.34
2018-05-21T09:56:53.919Z,26.49
2018-05-21T09:57:53.934Z,26.34
2018-05-21T09:58:53.949Z,26.15
2018-05-21T09:59:53.965Z,26.18
2018-05-21T10:00:53.996Z,26.26
2018-05-21T10:01:53.993Z,26.10
2018-05-21T10:02:54.008Z,26.16
2018-05-21T10:03:54.022Z,26.24
2018-05-21T10:04:54.037Z,26.33
2018-05-21T10:05:54.052Z,26.23
2018-05-21T10:06:54.067Z,26.34
2018-05-21T10:07:54.080Z,26.34
2018-05-21T10:08:54.094Z,26.68
2018-05-21T10:09:54.110Z,26.64
2018-05-21T10:10:54.129Z,26.71
2018-05-21T10:11:54.140Z,26.85
2018-05-21T10:12:54.154Z,26.88
2018-05-21T10:13:54.168Z,27.01
2018-05-21T10:14:54.183Z,27.13
2018-05-21T10:15:54.199Z,27.28
2018-05-21T10:16:54.212Z,27.41
2018-05-21T10:17:54.227Z,27.38
2018-05-21T10:18:54.243Z,27.43
2018-05-21T10:19:54.255Z,27.47
2018-05-21T10:20:54.269Z,27.48
2018-05-21T10:21:54.575Z,27.13
2018-05-21T10:22:54.299Z,27.29
2018-05-21T10:23:54.314Z,27.38
2018-05-21T10:24:54.328Z,27.16
2018-05-21T10:25:54.351Z,27.13
2018-05-21T10:26:54.357Z,27.30
2018-05-21T10:27:54.374Z,27.37
2018-05-21T10:28:54.386Z,27.53
2018-05-21T10:29:54.709Z,27.55
2018-05-21T10:30:54.413Z,27.34
2018-05-21T10:31:54.427Z,27.22
2018-05-21T10:32:54.446Z,27.20
2018-05-21T10:33:54.462Z,26.78
2018-05-21T10:34:54.475Z,26.74
2018-05-21T10:35:54.488Z,26.79
2018-05-21T10:36:54.502Z,26.91
2018-05-21T10:37:54.515Z,27.11
2018-05-21T10:38:54.529Z,27.35
2018-05-21T10:39:54.543Z,27.30
2018-05-21T10:40:54.556Z,26.97
2018-05-21T10:41:54.570Z,27.01
2018-05-21T10:42:54.584Z,27.04
2018-05-21T10:43:54.712Z,27.22
2018-05-21T10:44:54.612Z,27.44
2018-05-21T10:45:54.626Z,27.57
2018-05-21T10:46:54.640Z,27.52
2018-05-21T10:47:54.654Z,27.60
2018-05-21T10:48:54.672Z,27.67
2018-05-21T10:49:54.683Z,27.67
2018-05-21T10:50:54.696Z,27.66
2018-05-21T10:51:54.710Z,27.61
2018-05-21T10:52:54.728Z,27.40
2018-05-21T10:53:54.739Z,27.28
2018-05-21T10:54:54.754Z,27.18
2018-05-21T10:55:54.768Z,27.05
2018-05-21T10:56:54.782Z,27.00
2018-05-21T10:57:54.796Z,26.76
2018-05-21T10:58:54.813Z,26.83
2018-05-21T10:59:54.823Z,26.92
2018-05-21T11:00:54.848Z,26.93
2018-05-21T11:01:54.853Z,26.79
2018-05-21T11:02:54.865Z,26.92
2018-05-21T11:03:54.878Z,27.00
2018-05-21T11:04:54.893Z,26.96
2018-05-21T11:05:54.907Z,26.96
2018-05-21T11:06:55.101Z,26.96
2018-05-21T11:07:54.939Z,26.98
2018-05-21T11:08:54.948Z,27.10
2018-05-21T11:09:54.962Z,27.19
2018-05-21T11:10:55.008Z,27.04
2018-05-21T11:11:54.990Z,26.91
2018-05-21T11:12:55.003Z,26.92
2018-05-21T11:13:55.016Z,26.89
2018-05-21T11:14:55.031Z,26.83
2018-05-21T11:15:55.044Z,26.79
2018-05-21T11:16:55.078Z,26.76
2018-05-21T11:17:55.104Z,26.67
2018-05-21T11:18:55.084Z,26.66
2018-05-21T11:19:55.098Z,26.66
2018-05-21T11:20:55.111Z,26.60
2018-05-21T11:21:55.126Z,26.76
2018-05-21T11:22:55.136Z,26.89
2018-05-21T11:23:55.150Z,26.92
2018-05-21T11:24:55.164Z,26.97
2018-05-21T11:25:55.177Z,26.82
2018-05-21T11:26:55.190Z,26.76
2018-05-21T11:27:55.203Z,26.96
2018-05-21T11:28:55.216Z,27.26
2018-05-21T11:29:55.229Z,27.30
2018-05-21T11:30:55.242Z,27.16
2018-05-21T11:31:55.261Z,26.91
2018-05-21T11:32:55.268Z,26.53
2018-05-21T11:33:55.281Z,26.11
2018-05-21T11:34:55.297Z,25.89
2018-05-21T11:35:55.306Z,25.56
2018-05-21T11:36:55.320Z,25.59
2018-05-21T11:37:55.333Z,25.88
2018-05-21T11:38:55.343Z,26.11
2018-05-21T11:39:55.358Z,26.51
2018-05-21T11:40:55.369Z,26.82
2018-05-21T11:41:55.383Z,27.08
2018-05-21T11:42:55.395Z,27.34
2018-05-21T11:43:55.406Z,27.48
2018-05-21T11:44:55.420Z,27.63
2018-05-21T11:45:55.431Z,27.63
2018-05-21T11:46:55.444Z,27.73
2018-05-21T11:47:55.456Z,27.93
2018-05-21T11:48:55.469Z,27.85
2018-05-21T11:49:55.482Z,27.60
2018-05-21T11:50:55.494Z,27.29
2018-05-21T11:51:55.506Z,27.05
2018-05-21T11:52:55.522Z,26.96
2018-05-21T11:53:55.540Z,27.13
2018-05-21T11:54:55.543Z,27.00
2018-05-21T11:55:55.556Z,26.76
2018-05-21T11:56:55.573Z,26.45
2018-05-21T11:57:55.586Z,26.39
2018-05-21T11:58:55.594Z,26.66
2018-05-21T11:59:55.611Z,26.70
2018-05-21T12:00:55.638Z,27.03
2018-05-21T12:01:55.664Z,27.20
2018-05-21T12:02:55.642Z,27.26
2018-05-21T12:03:55.653Z,27.22
2018-05-21T12:04:55.666Z,27.26
2018-05-21T12:05:55.678Z,27.37
2018-05-21T12:06:55.690Z,27.26
2018-05-21T12:07:55.701Z,27.29
2018-05-21T12:08:55.713Z,27.10
2018-05-21T12:09:55.726Z,27.13
2018-05-21T12:10:55.739Z,27.08
2018-05-21T12:11:55.750Z,27.15
2018-05-21T12:12:55.763Z,27.30
2018-05-21T12:13:55.777Z,27.58
2018-05-21T12:14:55.787Z,27.64
2018-05-21T12:15:55.797Z,27.76
2018-05-21T12:16:55.810Z,28.04
2018-05-21T12:17:55.822Z,27.98
2018-05-21T12:18:55.834Z,28.13
2018-05-21T12:19:55.847Z,28.13
2018-05-21T12:20:55.858Z,28.16
2018-05-21T12:21:55.878Z,28.10
2018-05-21T12:22:55.883Z,28.01
2018-05-21T12:23:55.893Z,28.38
2018-05-21T12:24:55.905Z,28.40
2018-05-21T12:25:55.918Z,28.53
2018-05-21T12:26:55.932Z,28.41
2018-05-21T12:27:55.941Z,28.38
2018-05-21T12:28:55.955Z,28.37
2018-05-21T12:29:55.967Z,28.50
2018-05-21T12:30:55.978Z,28.43
2018-05-21T12:31:55.991Z,28.56
2018-05-21T12:32:56.004Z,28.59
2018-05-21T12:33:56.017Z,28.49
2018-05-21T12:34:56.029Z,28.23
2018-05-21T12:35:56.040Z,27.85
2018-05-21T12:36:56.051Z,28.00
2018-05-21T12:37:56.065Z,27.98
2018-05-21T12:38:56.079Z,28.04
2018-05-21T12:39:56.565Z,28.09
2018-05-21T12:40:56.103Z,28.10
2018-05-21T12:41:56.115Z,27.78
2018-05-21T12:42:56.129Z,27.05
2018-05-21T12:43:56.139Z,26.61
2018-05-21T12:44:56.151Z,26.44
2018-05-21T12:45:56.162Z,26.46
2018-05-21T12:46:56.179Z,26.30
2018-05-21T12:47:56.185Z,26.13
2018-05-21T12:48:56.197Z,26.08
2018-05-21T12:49:56.209Z,25.85
2018-05-21T12:50:56.224Z,26.11
2018-05-21T12:51:56.229Z,26.01
2018-05-21T12:52:56.307Z,25.95